St Solene — FVDG — position and weather

sailwx.info

Track history (hours):
 
Tides and Currents Weather Stations Pressure Air Temp Water Temp Dewpoint Dewpoint Depression Visibility Wind Speed Wind Dir Waves Ship Positions

St Solene

Last reported at 2017-Aug-19 22:38 UTC. Time now 2017-Aug-20 00:21 UTC.
Position N 43°10' E 009°10'.

Length 104 m; draft 6.4 m.

Type: Tanker. MMSI: 226302000.

Date/timePositionNaut miles runAvg speedWind from/ knotsBaromVisibWave heightAir tempDewpointWater temp
2017-Aug-19 22:38N 43°10' E 009°10'210.9
2017-Aug-19 22:30N 43°11' E 009°12'611.1
2017-Aug-19 21:58N 43°13' E 009°20'511.1
2017-Aug-19 21:30N 43°14' E 009°26'713.1
2017-Aug-19 20:56N 43°09' E 009°34'613.8
2017-Aug-19 20:30N 43°03' E 009°38'914.3
2017-Aug-19 19:54N 42°55' E 009°41'814.0
2017-Aug-19 19:19N 42°47' E 009°40'15 1.0
2017-Aug-19 04:34N 42°33' E 009°33'1 5.4
2017-Aug-19 04:28N 42°32' E 009°33'1 0.1
2017-Aug-18 20:36N 42°32' E 009°34'0 0.0
2017-Aug-18 20:12N 42°32' E 009°34'0 0.0
2017-Aug-18 19:59N 42°32' E 009°34'0 0.1
2017-Aug-18 19:17N 42°32' E 009°34'0 0.1
2017-Aug-18 18:52N 42°32' E 009°34'0 0.1
2017-Aug-18 18:08N 42°32' E 009°34'0 0.1
2017-Aug-18 18:01N 42°32' E 009°34'0 0.1
2017-Aug-18 17:29N 42°32' E 009°34'0 0.2
2017-Aug-18 16:57N 42°32' E 009°34'3 7.3
2017-Aug-18 16:30N 42°32' E 009°39'611.8
2017-Aug-18 16:00N 42°37' E 009°42'813.8
2017-Aug-18 15:24N 42°46' E 009°41'513.6
2017-Aug-18 15:00N 42°51' E 009°39'713.2
2017-Aug-18 14:31N 42°57' E 009°37'1313.4
2017-Aug-18 13:31N 43°09' E 009°29'612.3
2017-Aug-18 13:00N 43°14' E 009°23'713.7
2017-Aug-18 12:31N 43°12' E 009°14'714.0
2017-Aug-18 12:00N 43°09' E 009°05'714.1
2017-Aug-18 11:30N 43°07' E 008°56'714.6
2017-Aug-18 11:00N 43°05' E 008°46'714.5
2017-Aug-18 10:30N 43°03' E 008°37'714.4
2017-Aug-18 10:00N 43°00' E 008°27'714.2
2017-Aug-18 09:30N 42°58' E 008°18'714.0
2017-Aug-18 09:00N 42°56' E 008°09'714.0
2017-Aug-18 08:30N 42°54' E 007°60'713.9
2017-Aug-18 08:00N 42°52' E 007°51'713.8
2017-Aug-18 07:30N 42°50' E 007°42'713.4
2017-Aug-18 07:00N 42°48' E 007°33'713.5
2017-Aug-18 06:30N 42°46' E 007°24'713.3
2017-Aug-18 06:00N 42°44' E 007°16'713.2
2017-Aug-18 05:27N 42°42' E 007°06'713.3
2017-Aug-18 04:53N 42°40' E 006°56'513.2
2017-Aug-18 04:29N 42°40' E 006°49'713.2
2017-Aug-18 03:59N 42°40' E 006°40'713.4
2017-Aug-18 03:27N 42°39' E 006°30'613.7
2017-Aug-18 03:00N 42°39' E 006°22'713.3
2017-Aug-18 02:28N 42°39' E 006°12'713.3
2017-Aug-18 01:57N 42°42' E 006°04'613.2
2017-Aug-18 01:30N 42°44' E 005°56'613.1
2017-Aug-18 01:00N 42°47' E 005°48'713.1
2017-Aug-18 00:30N 42°50' E 005°40'1513.1
2017-Aug-17 23:19N 42°56' E 005°21'413.4
2017-Aug-17 23:00N 42°58' E 005°16'713.2
2017-Aug-17 22:30N 43°01' E 005°08'612.7
2017-Aug-17 22:00N 43°06' E 005°03'713.9
2017-Aug-17 21:30N 43°13' E 005°00'713.6
2017-Aug-17 21:00N 43°20' E 004°58'510.4
2017-Aug-17 20:30N 43°24' E 004°54'2 3.4
2017-Aug-17 20:00N 43°26' E 004°54'0 0.0
2017-Aug-17 15:59N 43°26' E 004°54'0 0.0
2017-Aug-17 14:50N 43°26' E 004°54'0 0.0
2017-Aug-17 14:17N 43°26' E 004°54'0 0.0
2017-Aug-17 13:58N 43°26' E 004°54'0 0.0
2017-Aug-17 13:29N 43°26' E 004°54'0 0.0
2017-Aug-17 12:53N 43°26' E 004°54'0 0.0
2017-Aug-17 12:13N 43°26' E 004°54'0 0.0
2017-Aug-17 11:59N 43°26' E 004°54'0 0.0
2017-Aug-17 11:11N 43°26' E 004°54'0 0.0
2017-Aug-17 10:38N 43°26' E 004°54'0 0.0
2017-Aug-17 10:29N 43°26' E 004°54'0 0.0
2017-Aug-17 09:56N 43°26' E 004°54'0 0.0
2017-Aug-17 09:17N 43°26' E 004°54'0 0.0
2017-Aug-17 08:47N 43°26' E 004°54'0 0.0
2017-Aug-17 08:17N 43°26' E 004°54'1 2.1
2017-Aug-17 08:00N 43°25' E 004°53'4 8.8
2017-Aug-17 07:30N 43°23' E 004°59'1 1.3
2017-Aug-17 06:58N 43°24' E 004°60'0 0.0
2017-Aug-17 06:28N 43°24' E 004°60'0 0.0
2017-Aug-17 05:58N 43°24' E 004°60'0 0.0
2017-Aug-17 05:28N 43°24' E 004°60'0 0.0
2017-Aug-17 04:58N 43°24' E 004°60'0 0.0
2017-Aug-17 04:28N 43°24' E 004°60'0 0.0
2017-Aug-17 03:55N 43°24' E 004°60'0 0.0
2017-Aug-17 03:28N 43°24' E 004°60'0 0.0
2017-Aug-17 02:55N 43°24' E 004°60'0 0.0
2017-Aug-17 02:28N 43°24' E 004°60'0 0.0
2017-Aug-17 01:58N 43°24' E 004°60'0 0.0
2017-Aug-17 01:28N 43°24' E 004°60'0 0.0
2017-Aug-17 00:58N 43°24' E 004°60'0 0.0
2017-Aug-17 00:25N 43°24' E 004°60'0 0.0
2017-Aug-16 23:58N 43°24' E 004°60'0 0.0
2017-Aug-16 23:25N 43°24' E 004°60'0 0.0
2017-Aug-16 22:55N 43°24' E 004°60'0 0.0
2017-Aug-16 22:25N 43°24' E 004°60'0 0.0
2017-Aug-16 21:58N 43°24' E 004°60'0 0.0
2017-Aug-16 21:28N 43°24' E 004°60'0 0.0
2017-Aug-16 20:58N 43°24' E 004°60'0 0.0
2017-Aug-16 20:28N 43°24' E 004°60'0 0.0
2017-Aug-16 19:58N 43°24' E 004°60'0 0.0
2017-Aug-16 19:28N 43°24' E 004°60'0 0.0
2017-Aug-16 18:55N 43°24' E 004°60'0 0.0
2017-Aug-16 18:28N 43°24' E 004°60'0 0.0
2017-Aug-16 17:58N 43°24' E 004°60'0 0.0
2017-Aug-16 17:28N 43°24' E 004°60'0 0.0
2017-Aug-16 16:55N 43°24' E 004°60'0 0.0
2017-Aug-16 16:30N 43°24' E 004°60'3 5.3
2017-Aug-16 16:00N 43°21' E 004°58'510.8
2017-Aug-16 15:30N 43°16' E 005°01'611.5
2017-Aug-16 15:01N 43°11' E 005°03'611.9
2017-Aug-16 14:30N 43°05' E 005°06'612.0
2017-Aug-16 14:01N 42°59' E 005°08'713.3
2017-Aug-16 13:30N 42°56' E 005°16'714.1
2017-Aug-16 13:00N 42°53' E 005°25'713.9
2017-Aug-16 12:30N 42°51' E 005°34'713.9
2017-Aug-16 12:00N 42°48' E 005°42'713.7
2017-Aug-16 11:30N 42°46' E 005°51'813.8
2017-Aug-16 10:55N 42°43' E 006°01'1013.8
2017-Aug-16 10:10N 42°39' E 006°15'314.0
2017-Aug-16 09:59N 42°39' E 006°18'713.9
2017-Aug-16 09:30N 42°39' E 006°27'813.8
2017-Aug-16 08:55N 42°40' E 006°38'2113.6
2017-Aug-16 07:21N 42°42' E 007°07'513.5
2017-Aug-16 06:59N 42°43' E 007°13'613.4
2017-Aug-16 06:30N 42°45' E 007°22'713.4
2017-Aug-16 06:00N 42°47' E 007°30'713.4
2017-Aug-16 05:30N 42°49' E 007°39'713.4
2017-Aug-16 05:00N 42°51' E 007°48'713.3
2017-Aug-16 04:29N 42°53' E 007°57'713.4
2017-Aug-16 03:58N 42°55' E 008°06'613.2
2017-Aug-16 03:30N 42°58' E 008°14'612.9
2017-Aug-16 03:00N 42°59' E 008°22'613.0
2017-Aug-16 02:31N 43°01' E 008°31'712.7
2017-Aug-16 01:59N 43°03' E 008°39'813.0
2017-Aug-16 01:24N 43°06' E 008°49'513.4
2017-Aug-16 01:01N 43°08' E 008°56'713.4
2017-Aug-16 00:31N 43°10' E 009°05'713.4
2017-Aug-16 00:00N 43°12' E 009°13'813.7
2017-Aug-15 23:24N 43°14' E 009°24'613.3
2017-Aug-15 22:57N 43°10' E 009°31'613.8
2017-Aug-15 22:30N 43°06' E 009°37'714.4
2017-Aug-15 22:00N 42°59' E 009°40'714.2
2017-Aug-15 21:30N 42°52' E 009°42'713.9
2017-Aug-15 21:00N 42°45' E 009°40'714.1
2017-Aug-15 20:30N 42°39' E 009°38'611.6
2017-Aug-15 19:59N 42°33' E 009°35'2 0.1
2017-Aug-15 05:45N 42°33' E 009°33'0 0.4
2017-Aug-15 05:30N 42°33' E 009°33'4 6.6
2017-Aug-15 04:55N 42°33' E 009°38'3110.8
2017-Aug-15 02:03N 43°04' E 009°33'113.3
2017-Aug-15 02:00N 43°04' E 009°33'713.4
2017-Aug-15 01:30N 43°10' E 009°28'511.0
2017-Aug-15 01:00N 43°14' E 009°22'713.4
2017-Aug-15 00:30N 43°12' E 009°14'713.5
2017-Aug-15 00:00N 43°09' E 009°05'713.4
2017-Aug-14 23:30N 43°07' E 008°56'713.4
2017-Aug-14 23:00N 43°05' E 008°48'713.4
2017-Aug-14 22:30N 43°03' E 008°39'713.5
2017-Aug-14 22:00N 43°01' E 008°30'713.5
2017-Aug-14 21:28N 42°59' E 008°20'613.6
2017-Aug-14 21:00N 42°57' E 008°12'713.5
2017-Aug-14 20:30N 42°55' E 008°03'713.5
2017-Aug-14 20:00N 42°53' E 007°55'713.4
2017-Aug-14 19:30N 42°51' E 007°46'713.3
2017-Aug-14 19:00N 42°49' E 007°37'713.2
2017-Aug-14 18:30N 42°47' E 007°29'713.3
2017-Aug-14 18:00N 42°45' E 007°20'613.1
2017-Aug-14 17:30N 42°43' E 007°12'613.0
2017-Aug-14 17:00N 42°41' E 007°03'612.8
2017-Aug-14 16:30N 42°40' E 006°55'713.0
2017-Aug-14 16:00N 42°40' E 006°46'713.0
2017-Aug-14 15:30N 42°40' E 006°37'713.1
2017-Aug-14 15:00N 42°39' E 006°28'612.7
2017-Aug-14 14:30N 42°39' E 006°19'612.4
2017-Aug-14 14:00N 42°39' E 006°11'1512.8
2017-Aug-14 12:49N 42°46' E 005°52'412.8
2017-Aug-14 12:30N 42°48' E 005°47'1712.5
2017-Aug-14 11:10N 42°55' E 005°26'212.7
2017-Aug-14 11:00N 42°55' E 005°24'1612.8
2017-Aug-14 09:47N 43°06' E 005°08'413.2
2017-Aug-14 09:28N 43°09' E 005°04'612.4
2017-Aug-14 09:00N 43°14' E 005°00'612.8
2017-Aug-14 08:30N 43°20' E 004°58'4 7.1
2017-Aug-14 08:00N 43°24' E 004°60'0 0.0
2017-Aug-14 07:27N 43°24' E 004°60'0 0.0
2017-Aug-14 07:00N 43°24' E 004°60'0 0.0
2017-Aug-14 06:30N 43°24' E 004°60'0 0.0
2017-Aug-14 06:00N 43°24' E 004°60'0 0.0
2017-Aug-14 05:27N 43°24' E 004°60'0 0.0
2017-Aug-14 05:00N 43°24' E 004°60'0 0.0
2017-Aug-14 04:30N 43°24' E 004°60'0 0.0
2017-Aug-14 04:00N 43°24' E 004°60'0 0.0
2017-Aug-14 03:30N 43°24' E 004°60'0 0.0
2017-Aug-14 03:00N 43°24' E 004°60'0 0.0
2017-Aug-14 02:30N 43°24' E 004°60'0 0.0
2017-Aug-14 02:00N 43°24' E 004°60'0 0.0
2017-Aug-14 01:31N 43°24' E 004°60'0 0.0
2017-Aug-14 00:57N 43°24' E 004°60'0 0.0
2017-Aug-14 00:30N 43°24' E 004°60'0 0.0
2017-Aug-14 00:00N 43°24' E 004°60'0 0.0
2017-Aug-13 23:30N 43°24' E 004°60'0 0.0
2017-Aug-13 23:00N 43°24' E 004°60'0 0.0
2017-Aug-13 22:30N 43°24' E 004°60'0 0.0
2017-Aug-13 22:00N 43°24' E 004°60'0 0.0
2017-Aug-13 21:30N 43°24' E 004°60'0 0.1
2017-Aug-13 21:00N 43°24' E 004°60'2 2.7
2017-Aug-13 20:25N 43°24' E 004°57'0 0.0
2017-Aug-13 19:52N 43°24' E 004°57'0 0.0
2017-Aug-13 19:29N 43°24' E 004°57'0 0.0
2017-Aug-13 18:53N 43°24' E 004°57'0 0.0
2017-Aug-13 18:29N 43°24' E 004°57'0 0.0
2017-Aug-13 17:56N 43°24' E 004°58'0 0.0
2017-Aug-13 17:29N 43°24' E 004°58'0 0.0
2017-Aug-13 16:59N 43°24' E 004°58'0 0.1
2017-Aug-13 16:29N 43°24' E 004°58'0 0.0
2017-Aug-13 15:59N 43°24' E 004°58'0 0.0
2017-Aug-13 15:29N 43°24' E 004°58'0 0.0
2017-Aug-13 14:59N 43°24' E 004°58'0 0.0
2017-Aug-13 14:29N 43°24' E 004°58'0 0.0
2017-Aug-13 13:59N 43°24' E 004°58'2 4.2
2017-Aug-13 13:30N 43°24' E 004°55'2 3.4
2017-Aug-13 12:58N 43°26' E 004°54'0 0.0
2017-Aug-13 12:22N 43°26' E 004°54'0 0.0
2017-Aug-13 11:58N 43°26' E 004°54'0 0.0
2017-Aug-13 11:28N 43°26' E 004°54'0 0.0
2017-Aug-13 10:58N 43°26' E 004°54'0 0.0
2017-Aug-13 09:34N 43°26' E 004°54'0 0.0
2017-Aug-13 09:16N 43°26' E 004°54'0 0.0
2017-Aug-13 08:58N 43°26' E 004°54'0 0.0
2017-Aug-13 07:19N 43°26' E 004°54'0 0.0
2017-Aug-13 06:58N 43°26' E 004°54'0 0.0
2017-Aug-13 06:28N 43°26' E 004°54'0 0.0
2017-Aug-13 05:58N 43°26' E 004°54'0 0.0
2017-Aug-13 05:25N 43°26' E 004°54'0 0.0
2017-Aug-13 04:58N 43°26' E 004°54'0 0.0
2017-Aug-13 04:16N 43°26' E 004°54'0 0.0
2017-Aug-13 03:58N 43°26' E 004°54'0 0.0
2017-Aug-13 03:28N 43°26' E 004°54'0 0.0
2017-Aug-13 02:58N 43°26' E 004°54'0 0.0
2017-Aug-13 02:28N 43°26' E 004°54'0 0.0
2017-Aug-13 01:55N 43°26' E 004°54'0 0.0
2017-Aug-13 01:28N 43°26' E 004°54'0 0.0
2017-Aug-13 00:58N 43°26' E 004°54'0 0.0
2017-Aug-13 00:28N 43°26' E 004°54'0 0.0
2017-Aug-12 23:58N 43°26' E 004°54'0 0.0
2017-Aug-12 23:28N 43°26' E 004°54'0 0.0
2017-Aug-12 22:49N 43°26' E 004°54'0 0.0
2017-Aug-12 22:28N 43°26' E 004°54'0 0.0
2017-Aug-12 21:55N 43°26' E 004°54'0 0.0
2017-Aug-12 21:19N 43°26' E 004°54'0 0.0
2017-Aug-12 20:58N 43°26' E 004°54'0 0.0
2017-Aug-12 20:28N 43°26' E 004°54'0 0.0
2017-Aug-12 19:58N 43°26' E 004°54'0 0.0
2017-Aug-12 19:22N 43°26' E 004°54'0 0.0
2017-Aug-12 18:58N 43°26' E 004°54'0 0.0
2017-Aug-12 18:28N 43°26' E 004°54'0 0.0
2017-Aug-12 17:58N 43°26' E 004°54'0 0.0
2017-Aug-12 17:30N 43°26' E 004°54'0 0.0
2017-Aug-12 17:00N 43°26' E 004°54'0 0.0
2017-Aug-12 16:30N 43°26' E 004°54'0 0.0
2017-Aug-12 16:00N 43°26' E 004°54'0 0.0
2017-Aug-12 15:30N 43°26' E 004°54'0 0.0
2017-Aug-12 14:58N 43°26' E 004°54'0 0.0
2017-Aug-12 14:28N 43°26' E 004°54'0 0.0
2017-Aug-12 13:58N 43°26' E 004°54'0 0.0
2017-Aug-12 13:30N 43°26' E 004°54'2 4.5
2017-Aug-12 13:00N 43°24' E 004°56'0 0.4
2017-Aug-12 12:30N 43°24' E 004°56'0 0.0
2017-Aug-12 12:00N 43°24' E 004°56'0 0.0
2017-Aug-12 11:30N 43°24' E 004°56'0 0.0
2017-Aug-12 11:00N 43°24' E 004°56'0 0.0
2017-Aug-12 10:30N 43°24' E 004°56'0 0.0
2017-Aug-12 10:00N 43°24' E 004°56'0 0.0
2017-Aug-12 09:30N 43°24' E 004°56'0 0.1
2017-Aug-12 09:00N 43°24' E 004°56'0 0.0
2017-Aug-12 08:30N 43°24' E 004°56'0 0.0
2017-Aug-12 08:00N 43°24' E 004°56'0 0.0
2017-Aug-12 07:30N 43°24' E 004°56'0 0.0
2017-Aug-12 07:00N 43°24' E 004°56'0 0.0
2017-Aug-12 06:30N 43°24' E 004°56'0 0.0
2017-Aug-12 06:00N 43°24' E 004°56'0 0.0
2017-Aug-12 05:30N 43°24' E 004°56'0 0.0
2017-Aug-12 05:00N 43°24' E 004°56'0 0.0
2017-Aug-12 04:30N 43°24' E 004°56'0 0.0
2017-Aug-12 04:00N 43°24' E 004°56'0 0.0
2017-Aug-12 03:30N 43°24' E 004°56'0 0.0
2017-Aug-12 03:00N 43°24' E 004°56'0 0.0
2017-Aug-12 02:30N 43°24' E 004°56'0 0.0
2017-Aug-12 02:00N 43°24' E 004°56'0 0.0
2017-Aug-12 01:30N 43°24' E 004°56'0 0.0
2017-Aug-12 01:00N 43°24' E 004°56'0 0.0
2017-Aug-12 00:30N 43°24' E 004°56'0 0.0
2017-Aug-12 00:00N 43°24' E 004°56'0 0.3
2017-Aug-11 23:30N 43°24' E 004°56'4 7.8
2017-Aug-11 23:00N 43°20' E 004°59'612.5
2017-Aug-11 22:31N 43°14' E 005°01'611.1
2017-Aug-11 22:01N 43°11' E 005°07'612.5
2017-Aug-11 21:31N 43°09' E 005°15'812.4
2017-Aug-11 20:51N 43°06' E 005°26'  
Track history (hours):
 
Tides and Currents Weather Stations Pressure Air Temp Water Temp Dewpoint Dewpoint Depression Visibility Wind Speed Wind Dir Waves Ship Positions

St Solene

Last reported at 2017-Aug-19 22:38 UTC. Time now 2017-Aug-20 00:21 UTC.
Position N 43°10' E 009°10'.

Length 104 m; draft 6.4 m.

Type: Tanker. MMSI: 226302000.

Date/timePositionNaut miles runAvg speedWind from/ knotsBaromVisibWave heightAir tempDewpointWater temp
2017-Aug-19 22:38N 43°10' E 009°10'210.9
2017-Aug-19 22:30N 43°11' E 009°12'611.1
2017-Aug-19 21:58N 43°13' E 009°20'511.1
2017-Aug-19 21:30N 43°14' E 009°26'713.1
2017-Aug-19 20:56N 43°09' E 009°34'613.8
2017-Aug-19 20:30N 43°03' E 009°38'914.3
2017-Aug-19 19:54N 42°55' E 009°41'814.0
2017-Aug-19 19:19N 42°47' E 009°40'15 1.0
2017-Aug-19 04:34N 42°33' E 009°33'1 5.4
2017-Aug-19 04:28N 42°32' E 009°33'1 0.1
2017-Aug-18 20:36N 42°32' E 009°34'0 0.0
2017-Aug-18 20:12N 42°32' E 009°34'0 0.0
2017-Aug-18 19:59N 42°32' E 009°34'0 0.1
2017-Aug-18 19:17N 42°32' E 009°34'0 0.1
2017-Aug-18 18:52N 42°32' E 009°34'0 0.1
2017-Aug-18 18:08N 42°32' E 009°34'0 0.1
2017-Aug-18 18:01N 42°32' E 009°34'0 0.1
2017-Aug-18 17:29N 42°32' E 009°34'0 0.2
2017-Aug-18 16:57N 42°32' E 009°34'3 7.3
2017-Aug-18 16:30N 42°32' E 009°39'611.8
2017-Aug-18 16:00N 42°37' E 009°42'813.8
2017-Aug-18 15:24N 42°46' E 009°41'513.6
2017-Aug-18 15:00N 42°51' E 009°39'713.2
2017-Aug-18 14:31N 42°57' E 009°37'1313.4
2017-Aug-18 13:31N 43°09' E 009°29'612.3
2017-Aug-18 13:00N 43°14' E 009°23'713.7
2017-Aug-18 12:31N 43°12' E 009°14'714.0
2017-Aug-18 12:00N 43°09' E 009°05'714.1
2017-Aug-18 11:30N 43°07' E 008°56'714.6
2017-Aug-18 11:00N 43°05' E 008°46'714.5
2017-Aug-18 10:30N 43°03' E 008°37'714.4
2017-Aug-18 10:00N 43°00' E 008°27'714.2
2017-Aug-18 09:30N 42°58' E 008°18'714.0
2017-Aug-18 09:00N 42°56' E 008°09'714.0
2017-Aug-18 08:30N 42°54' E 007°60'713.9
2017-Aug-18 08:00N 42°52' E 007°51'713.8
2017-Aug-18 07:30N 42°50' E 007°42'713.4
2017-Aug-18 07:00N 42°48' E 007°33'713.5
2017-Aug-18 06:30N 42°46' E 007°24'713.3
2017-Aug-18 06:00N 42°44' E 007°16'713.2
2017-Aug-18 05:27N 42°42' E 007°06'713.3
2017-Aug-18 04:53N 42°40' E 006°56'513.2
2017-Aug-18 04:29N 42°40' E 006°49'713.2
2017-Aug-18 03:59N 42°40' E 006°40'713.4
2017-Aug-18 03:27N 42°39' E 006°30'613.7
2017-Aug-18 03:00N 42°39' E 006°22'713.3
2017-Aug-18 02:28N 42°39' E 006°12'713.3
2017-Aug-18 01:57N 42°42' E 006°04'613.2
2017-Aug-18 01:30N 42°44' E 005°56'613.1
2017-Aug-18 01:00N 42°47' E 005°48'713.1
2017-Aug-18 00:30N 42°50' E 005°40'1513.1
2017-Aug-17 23:19N 42°56' E 005°21'413.4
2017-Aug-17 23:00N 42°58' E 005°16'713.2
2017-Aug-17 22:30N 43°01' E 005°08'612.7
2017-Aug-17 22:00N 43°06' E 005°03'713.9
2017-Aug-17 21:30N 43°13' E 005°00'713.6
2017-Aug-17 21:00N 43°20' E 004°58'510.4
2017-Aug-17 20:30N 43°24' E 004°54'2 3.4
2017-Aug-17 20:00N 43°26' E 004°54'0 0.0
2017-Aug-17 15:59N 43°26' E 004°54'0 0.0
2017-Aug-17 14:50N 43°26' E 004°54'0 0.0
2017-Aug-17 14:17N 43°26' E 004°54'0 0.0
2017-Aug-17 13:58N 43°26' E 004°54'0 0.0
2017-Aug-17 13:29N 43°26' E 004°54'0 0.0
2017-Aug-17 12:53N 43°26' E 004°54'0 0.0
2017-Aug-17 12:13N 43°26' E 004°54'0 0.0
2017-Aug-17 11:59N 43°26' E 004°54'0 0.0
2017-Aug-17 11:11N 43°26' E 004°54'0 0.0
2017-Aug-17 10:38N 43°26' E 004°54'0 0.0
2017-Aug-17 10:29N 43°26' E 004°54'0 0.0
2017-Aug-17 09:56N 43°26' E 004°54'0 0.0
2017-Aug-17 09:17N 43°26' E 004°54'0 0.0
2017-Aug-17 08:47N 43°26' E 004°54'0 0.0
2017-Aug-17 08:17N 43°26' E 004°54'1 2.1
2017-Aug-17 08:00N 43°25' E 004°53'4 8.8
2017-Aug-17 07:30N 43°23' E 004°59'1 1.3
2017-Aug-17 06:58N 43°24' E 004°60'0 0.0
2017-Aug-17 06:28N 43°24' E 004°60'0 0.0
2017-Aug-17 05:58N 43°24' E 004°60'0 0.0
2017-Aug-17 05:28N 43°24' E 004°60'0 0.0
2017-Aug-17 04:58N 43°24' E 004°60'0 0.0
2017-Aug-17 04:28N 43°24' E 004°60'0 0.0
2017-Aug-17 03:55N 43°24' E 004°60'0 0.0
2017-Aug-17 03:28N 43°24' E 004°60'0 0.0
2017-Aug-17 02:55N 43°24' E 004°60'0 0.0
2017-Aug-17 02:28N 43°24' E 004°60'0 0.0
2017-Aug-17 01:58N 43°24' E 004°60'0 0.0
2017-Aug-17 01:28N 43°24' E 004°60'0 0.0
2017-Aug-17 00:58N 43°24' E 004°60'0 0.0
2017-Aug-17 00:25N 43°24' E 004°60'0 0.0
2017-Aug-16 23:58N 43°24' E 004°60'0 0.0
2017-Aug-16 23:25N 43°24' E 004°60'0 0.0
2017-Aug-16 22:55N 43°24' E 004°60'0 0.0
2017-Aug-16 22:25N 43°24' E 004°60'0 0.0
2017-Aug-16 21:58N 43°24' E 004°60'0 0.0
2017-Aug-16 21:28N 43°24' E 004°60'0 0.0
2017-Aug-16 20:58N 43°24' E 004°60'0 0.0
2017-Aug-16 20:28N 43°24' E 004°60'0 0.0
2017-Aug-16 19:58N 43°24' E 004°60'0 0.0
2017-Aug-16 19:28N 43°24' E 004°60'0 0.0
2017-Aug-16 18:55N 43°24' E 004°60'0 0.0
2017-Aug-16 18:28N 43°24' E 004°60'0 0.0
2017-Aug-16 17:58N 43°24' E 004°60'0 0.0
2017-Aug-16 17:28N 43°24' E 004°60'0 0.0
2017-Aug-16 16:55N 43°24' E 004°60'0 0.0
2017-Aug-16 16:30N 43°24' E 004°60'3 5.3
2017-Aug-16 16:00N 43°21' E 004°58'510.8
2017-Aug-16 15:30N 43°16' E 005°01'611.5
2017-Aug-16 15:01N 43°11' E 005°03'611.9
2017-Aug-16 14:30N 43°05' E 005°06'612.0
2017-Aug-16 14:01N 42°59' E 005°08'713.3
2017-Aug-16 13:30N 42°56' E 005°16'714.1
2017-Aug-16 13:00N 42°53' E 005°25'713.9
2017-Aug-16 12:30N 42°51' E 005°34'713.9
2017-Aug-16 12:00N 42°48' E 005°42'713.7
2017-Aug-16 11:30N 42°46' E 005°51'813.8
2017-Aug-16 10:55N 42°43' E 006°01'1013.8
2017-Aug-16 10:10N 42°39' E 006°15'314.0
2017-Aug-16 09:59N 42°39' E 006°18'713.9
2017-Aug-16 09:30N 42°39' E 006°27'813.8
2017-Aug-16 08:55N 42°40' E 006°38'2113.6
2017-Aug-16 07:21N 42°42' E 007°07'513.5
2017-Aug-16 06:59N 42°43' E 007°13'613.4
2017-Aug-16 06:30N 42°45' E 007°22'713.4
2017-Aug-16 06:00N 42°47' E 007°30'713.4
2017-Aug-16 05:30N 42°49' E 007°39'713.4
2017-Aug-16 05:00N 42°51' E 007°48'713.3
2017-Aug-16 04:29N 42°53' E 007°57'713.4
2017-Aug-16 03:58N 42°55' E 008°06'613.2
2017-Aug-16 03:30N 42°58' E 008°14'612.9
2017-Aug-16 03:00N 42°59' E 008°22'613.0
2017-Aug-16 02:31N 43°01' E 008°31'712.7
2017-Aug-16 01:59N 43°03' E 008°39'813.0
2017-Aug-16 01:24N 43°06' E 008°49'513.4
2017-Aug-16 01:01N 43°08' E 008°56'713.4
2017-Aug-16 00:31N 43°10' E 009°05'713.4
2017-Aug-16 00:00N 43°12' E 009°13'813.7
2017-Aug-15 23:24N 43°14' E 009°24'613.3
2017-Aug-15 22:57N 43°10' E 009°31'613.8
2017-Aug-15 22:30N 43°06' E 009°37'714.4
2017-Aug-15 22:00N 42°59' E 009°40'714.2
2017-Aug-15 21:30N 42°52' E 009°42'713.9
2017-Aug-15 21:00N 42°45' E 009°40'714.1
2017-Aug-15 20:30N 42°39' E 009°38'611.6
2017-Aug-15 19:59N 42°33' E 009°35'2 0.1
2017-Aug-15 05:45N 42°33' E 009°33'0 0.4
2017-Aug-15 05:30N 42°33' E 009°33'4 6.6
2017-Aug-15 04:55N 42°33' E 009°38'3110.8
2017-Aug-15 02:03N 43°04' E 009°33'113.3
2017-Aug-15 02:00N 43°04' E 009°33'713.4
2017-Aug-15 01:30N 43°10' E 009°28'511.0
2017-Aug-15 01:00N 43°14' E 009°22'713.4
2017-Aug-15 00:30N 43°12' E 009°14'713.5
2017-Aug-15 00:00N 43°09' E 009°05'713.4
2017-Aug-14 23:30N 43°07' E 008°56'713.4
2017-Aug-14 23:00N 43°05' E 008°48'713.4
2017-Aug-14 22:30N 43°03' E 008°39'713.5
2017-Aug-14 22:00N 43°01' E 008°30'713.5
2017-Aug-14 21:28N 42°59' E 008°20'613.6
2017-Aug-14 21:00N 42°57' E 008°12'713.5
2017-Aug-14 20:30N 42°55' E 008°03'713.5
2017-Aug-14 20:00N 42°53' E 007°55'713.4
2017-Aug-14 19:30N 42°51' E 007°46'713.3
2017-Aug-14 19:00N 42°49' E 007°37'713.2
2017-Aug-14 18:30N 42°47' E 007°29'713.3
2017-Aug-14 18:00N 42°45' E 007°20'613.1
2017-Aug-14 17:30N 42°43' E 007°12'613.0
2017-Aug-14 17:00N 42°41' E 007°03'612.8
2017-Aug-14 16:30N 42°40' E 006°55'713.0
2017-Aug-14 16:00N 42°40' E 006°46'713.0
2017-Aug-14 15:30N 42°40' E 006°37'713.1
2017-Aug-14 15:00N 42°39' E 006°28'612.7
2017-Aug-14 14:30N 42°39' E 006°19'612.4
2017-Aug-14 14:00N 42°39' E 006°11'1512.8
2017-Aug-14 12:49N 42°46' E 005°52'412.8
2017-Aug-14 12:30N 42°48' E 005°47'1712.5
2017-Aug-14 11:10N 42°55' E 005°26'212.7
2017-Aug-14 11:00N 42°55' E 005°24'1612.8
2017-Aug-14 09:47N 43°06' E 005°08'413.2
2017-Aug-14 09:28N 43°09' E 005°04'612.4
2017-Aug-14 09:00N 43°14' E 005°00'612.8
2017-Aug-14 08:30N 43°20' E 004°58'4 7.1
2017-Aug-14 08:00N 43°24' E 004°60'0 0.0
2017-Aug-14 07:27N 43°24' E 004°60'0 0.0
2017-Aug-14 07:00N 43°24' E 004°60'0 0.0
2017-Aug-14 06:30N 43°24' E 004°60'0 0.0
2017-Aug-14 06:00N 43°24' E 004°60'0 0.0
2017-Aug-14 05:27N 43°24' E 004°60'0 0.0
2017-Aug-14 05:00N 43°24' E 004°60'0 0.0
2017-Aug-14 04:30N 43°24' E 004°60'0 0.0
2017-Aug-14 04:00N 43°24' E 004°60'0 0.0
2017-Aug-14 03:30N 43°24' E 004°60'0 0.0
2017-Aug-14 03:00N 43°24' E 004°60'0 0.0
2017-Aug-14 02:30N 43°24' E 004°60'0 0.0
2017-Aug-14 02:00N 43°24' E 004°60'0 0.0
2017-Aug-14 01:31N 43°24' E 004°60'0 0.0
2017-Aug-14 00:57N 43°24' E 004°60'0 0.0
2017-Aug-14 00:30N 43°24' E 004°60'0 0.0
2017-Aug-14 00:00N 43°24' E 004°60'0 0.0
2017-Aug-13 23:30N 43°24' E 004°60'0 0.0
2017-Aug-13 23:00N 43°24' E 004°60'0 0.0
2017-Aug-13 22:30N 43°24' E 004°60'0 0.0
2017-Aug-13 22:00N 43°24' E 004°60'0 0.0
2017-Aug-13 21:30N 43°24' E 004°60'0 0.1
2017-Aug-13 21:00N 43°24' E 004°60'2 2.7
2017-Aug-13 20:25N 43°24' E 004°57'0 0.0
2017-Aug-13 19:52N 43°24' E 004°57'0 0.0
2017-Aug-13 19:29N 43°24' E 004°57'0 0.0
2017-Aug-13 18:53N 43°24' E 004°57'0 0.0
2017-Aug-13 18:29N 43°24' E 004°57'0 0.0
2017-Aug-13 17:56N 43°24' E 004°58'0 0.0
2017-Aug-13 17:29N 43°24' E 004°58'0 0.0
2017-Aug-13 16:59N 43°24' E 004°58'0 0.1
2017-Aug-13 16:29N 43°24' E 004°58'0 0.0
2017-Aug-13 15:59N 43°24' E 004°58'0 0.0
2017-Aug-13 15:29N 43°24' E 004°58'0 0.0
2017-Aug-13 14:59N 43°24' E 004°58'0 0.0
2017-Aug-13 14:29N 43°24' E 004°58'0 0.0
2017-Aug-13 13:59N 43°24' E 004°58'2 4.2
2017-Aug-13 13:30N 43°24' E 004°55'2 3.4
2017-Aug-13 12:58N 43°26' E 004°54'0 0.0
2017-Aug-13 12:22N 43°26' E 004°54'0 0.0
2017-Aug-13 11:58N 43°26' E 004°54'0 0.0
2017-Aug-13 11:28N 43°26' E 004°54'0 0.0
2017-Aug-13 10:58N 43°26' E 004°54'0 0.0
2017-Aug-13 09:34N 43°26' E 004°54'0 0.0
2017-Aug-13 09:16N 43°26' E 004°54'0 0.0
2017-Aug-13 08:58N 43°26' E 004°54'0 0.0
2017-Aug-13 07:19N 43°26' E 004°54'0 0.0
2017-Aug-13 06:58N 43°26' E 004°54'0 0.0
2017-Aug-13 06:28N 43°26' E 004°54'0 0.0
2017-Aug-13 05:58N 43°26' E 004°54'0 0.0
2017-Aug-13 05:25N 43°26' E 004°54'0 0.0
2017-Aug-13 04:58N 43°26' E 004°54'0 0.0
2017-Aug-13 04:16N 43°26' E 004°54'0 0.0
2017-Aug-13 03:58N 43°26' E 004°54'0 0.0
2017-Aug-13 03:28N 43°26' E 004°54'0 0.0
2017-Aug-13 02:58N 43°26' E 004°54'0 0.0
2017-Aug-13 02:28N 43°26' E 004°54'0 0.0
2017-Aug-13 01:55N 43°26' E 004°54'0 0.0
2017-Aug-13 01:28N 43°26' E 004°54'0 0.0
2017-Aug-13 00:58N 43°26' E 004°54'0 0.0
2017-Aug-13 00:28N 43°26' E 004°54'0 0.0
2017-Aug-12 23:58N 43°26' E 004°54'0 0.0
2017-Aug-12 23:28N 43°26' E 004°54'0 0.0
2017-Aug-12 22:49N 43°26' E 004°54'0 0.0
2017-Aug-12 22:28N 43°26' E 004°54'0 0.0
2017-Aug-12 21:55N 43°26' E 004°54'0 0.0
2017-Aug-12 21:19N 43°26' E 004°54'0 0.0
2017-Aug-12 20:58N 43°26' E 004°54'0 0.0
2017-Aug-12 20:28N 43°26' E 004°54'0 0.0
2017-Aug-12 19:58N 43°26' E 004°54'0 0.0
2017-Aug-12 19:22N 43°26' E 004°54'0 0.0
2017-Aug-12 18:58N 43°26' E 004°54'0 0.0
2017-Aug-12 18:28N 43°26' E 004°54'0 0.0
2017-Aug-12 17:58N 43°26' E 004°54'0 0.0
2017-Aug-12 17:30N 43°26' E 004°54'0 0.0
2017-Aug-12 17:00N 43°26' E 004°54'0 0.0
2017-Aug-12 16:30N 43°26' E 004°54'0 0.0
2017-Aug-12 16:00N 43°26' E 004°54'0 0.0
2017-Aug-12 15:30N 43°26' E 004°54'0 0.0
2017-Aug-12 14:58N 43°26' E 004°54'0 0.0
2017-Aug-12 14:28N 43°26' E 004°54'0 0.0
2017-Aug-12 13:58N 43°26' E 004°54'0 0.0
2017-Aug-12 13:30N 43°26' E 004°54'2 4.5
2017-Aug-12 13:00N 43°24' E 004°56'0 0.4
2017-Aug-12 12:30N 43°24' E 004°56'0 0.0
2017-Aug-12 12:00N 43°24' E 004°56'0 0.0
2017-Aug-12 11:30N 43°24' E 004°56'0 0.0
2017-Aug-12 11:00N 43°24' E 004°56'0 0.0
2017-Aug-12 10:30N 43°24' E 004°56'0 0.0
2017-Aug-12 10:00N 43°24' E 004°56'0 0.0
2017-Aug-12 09:30N 43°24' E 004°56'0 0.1
2017-Aug-12 09:00N 43°24' E 004°56'0 0.0
2017-Aug-12 08:30N 43°24' E 004°56'0 0.0
2017-Aug-12 08:00N 43°24' E 004°56'0 0.0
2017-Aug-12 07:30N 43°24' E 004°56'0 0.0
2017-Aug-12 07:00N 43°24' E 004°56'0 0.0
2017-Aug-12 06:30N 43°24' E 004°56'0 0.0
2017-Aug-12 06:00N 43°24' E 004°56'0 0.0
2017-Aug-12 05:30N 43°24' E 004°56'0 0.0
2017-Aug-12 05:00N 43°24' E 004°56'0 0.0
2017-Aug-12 04:30N 43°24' E 004°56'0 0.0
2017-Aug-12 04:00N 43°24' E 004°56'0 0.0
2017-Aug-12 03:30N 43°24' E 004°56'0 0.0
2017-Aug-12 03:00N 43°24' E 004°56'0 0.0
2017-Aug-12 02:30N 43°24' E 004°56'0 0.0
2017-Aug-12 02:00N 43°24' E 004°56'0 0.0
2017-Aug-12 01:30N 43°24' E 004°56'0 0.0
2017-Aug-12 01:00N 43°24' E 004°56'0 0.0
2017-Aug-12 00:30N 43°24' E 004°56'0 0.0
2017-Aug-12 00:00N 43°24' E 004°56'0 0.3
2017-Aug-11 23:30N 43°24' E 004°56'4 7.8
2017-Aug-11 23:00N 43°20' E 004°59'612.5
2017-Aug-11 22:31N 43°14' E 005°01'611.1
2017-Aug-11 22:01N 43°11' E 005°07'612.5
2017-Aug-11 21:31N 43°09' E 005°15'812.4
2017-Aug-11 20:51N 43°06' E 005°26'  

Dump ship's entire track history